Time;durP1;ratioP1;P1;durP2;ratioP2;P2;SDS_P1;SDS_P2;PMS_P1;PMS_P2;Temp;Humidity;BMP_temperature;BMP_pressure;BME280_temperature;BME280_humidity;BME280_pressure;Samples;Min_cycle;Max_cycle;Signal;HPM_P1;HPM_P2
2022/01/13 00:02:13;;;;;;;4.20;1.87;;;18.00;41.30;;;;;;5052362;28;20230;-77
2022/01/13 00:04:39;;;;;;;2.80;1.80;;;18.00;40.50;;;;;;5052727;28;20173;-76
2022/01/13 00:07:05;;;;;;;2.90;1.80;;;18.00;41.30;;;;;;5052729;28;20175;-76
2022/01/13 00:09:30;;;;;;;2.40;1.40;;;18.00;42.20;;;;;;5067876;28;20704;-75
2022/01/13 00:11:57;;;;;;;2.87;1.53;;;18.00;40.80;;;;;;5052138;28;20416;-76
2022/01/13 00:14:40;;;;;;;2.10;1.67;;;18.00;41.60;;;;;;5052605;28;20194;-76
2022/01/13 00:17:12;;;;;;;4.47;2.37;;;18.00;41.60;;;;;;5067946;28;20925;-76
2022/01/13 00:22:37;;;;;;;4.37;1.53;;;18.00;41.60;;;;;;5052072;28;20775;-76
2022/01/13 00:25:04;;;;;;;1.97;1.33;;;18.00;41.80;;;;;;5052249;28;20786;-77
2022/01/13 00:27:30;;;;;;;3.60;1.77;;;18.00;42.30;;;;;;5052356;28;20473;-77
2022/01/13 00:29:59;;;;;;;4.47;1.67;;;18.00;41.50;;;;;;5050547;28;20470;-77
2022/01/13 00:32:28;;;;;;;2.33;1.57;;;18.00;41.60;;;;;;5050997;28;20495;-76
2022/01/13 00:34:54;;;;;;;2.70;1.37;;;18.00;42.00;;;;;;5052045;28;20438;-78
2022/01/13 00:37:19;;;;;;;2.73;1.70;;;18.00;42.60;;;;;;5052161;28;20435;-76
2022/01/13 00:39:45;;;;;;;2.53;1.70;;;18.00;42.30;;;;;;5051949;28;20185;-76
2022/01/13 00:42:10;;;;;;;3.03;1.80;;;18.00;41.50;;;;;;5051622;28;20169;-76
2022/01/13 00:44:38;;;;;;;2.40;1.60;;;18.00;42.60;;;;;;5052168;28;20173;-77
2022/01/13 00:47:07;;;;;;;2.93;1.60;;;18.00;42.10;;;;;;5051903;28;20161;-76
2022/01/13 00:49:33;;;;;;;3.00;1.50;;;18.00;41.30;;;;;;5051707;28;20961;-77
2022/01/13 00:51:59;;;;;;;3.43;1.87;;;18.00;41.00;;;;;;5051499;28;20411;-76
2022/01/13 00:54:24;;;;;;;3.07;1.93;;;18.00;40.50;;;;;;5051785;28;20166;-76
2022/01/13 00:56:51;;;;;;;3.13;2.03;;;18.00;41.40;;;;;;5051939;28;20647;-76
2022/01/13 00:59:17;;;;;;;2.67;2.10;;;18.00;41.60;;;;;;5051588;28;20192;-76
2022/01/13 01:01:46;;;;;;;2.83;2.10;;;18.00;41.30;;;;;;5051385;28;20395;-77
2022/01/13 01:04:12;;;;;;;5.17;2.60;;;18.00;41.60;;;;;;5051526;28;20172;-78
2022/01/13 01:06:38;;;;;;;3.43;2.03;;;18.00;42.60;;;;;;5051449;28;20907;-77
2022/01/13 01:09:05;;;;;;;5.03;1.90;;;18.00;42.50;;;;;;5051693;28;20498;-77
2022/01/13 01:11:31;;;;;;;3.90;1.90;;;18.00;41.60;;;;;;5051170;28;20925;-77
2022/01/13 01:13:59;;;;;;;3.00;1.50;;;18.00;42.50;;;;;;5051421;28;20453;-77
2022/01/13 01:16:26;;;;;;;3.70;1.83;;;18.00;41.80;;;;;;5051408;28;20403;-77
2022/01/13 01:19:03;;;;;;;3.43;1.90;;;18.10;42.10;;;;;;5051191;28;20403;-79
2022/01/13 01:29:24;;;;;;;2.50;1.90;;;18.00;41.50;;;;;;5051098;28;20439;-76
2022/01/13 01:31:53;;;;;;;3.70;1.90;;;18.00;41.00;;;;;;5050859;28;20495;-78
2022/01/13 01:34:37;;;;;;;3.53;2.00;;;18.00;40.80;;;;;;5051177;28;20478;-76
2022/01/13 01:37:06;;;;;;;2.87;1.70;;;18.00;41.20;;;;;;5049815;28;20415;-78
2022/01/13 01:39:31;;;;;;;3.53;1.90;;;18.00;42.00;;;;;;5051115;28;20776;-77
2022/01/13 01:41:57;;;;;;;2.43;1.57;;;18.00;41.20;;;;;;5050497;28;20415;-77
2022/01/13 01:44:34;;;;;;;2.10;1.47;;;18.00;41.40;;;;;;5050908;28;20177;-77
2022/01/13 01:47:01;;;;;;;3.73;1.80;;;18.00;41.50;;;;;;5050787;28;20631;-77
2022/01/13 01:49:28;;;;;;;2.43;1.57;;;18.00;41.40;;;;;;5050665;28;20423;-76
2022/01/13 01:51:57;;;;;;;3.17;1.97;;;18.00;40.90;;;;;;5050441;28;20894;-76
2022/01/13 01:54:23;;;;;;;2.13;1.67;;;18.00;41.40;;;;;;5050802;28;20411;-77
2022/01/13 01:56:49;;;;;;;2.43;1.50;;;18.00;41.30;;;;;;5050838;28;20461;-76
2022/01/13 01:59:17;;;;;;;4.47;1.80;;;18.00;40.80;;;;;;5050546;28;20427;-77
2022/01/13 02:01:45;;;;;;;2.23;1.47;;;18.00;41.60;;;;;;5050334;28;20430;-76
2022/01/13 02:04:11;;;;;;;2.03;1.33;;;18.00;41.80;;;;;;5050646;28;20414;-76
2022/01/13 02:06:37;;;;;;;3.13;2.03;;;18.00;41.60;;;;;;5050621;28;20491;-78
2022/01/13 02:09:06;;;;;;;3.47;1.80;;;18.00;41.60;;;;;;5065750;28;20485;-76
2022/01/13 02:11:42;;;;;;;2.73;1.80;;;18.00;41.30;;;;;;5050200;28;20469;-76
2022/01/13 02:14:37;;;;;;;3.60;1.77;;;18.00;41.90;;;;;;5050649;28;20486;-76
2022/01/13 02:17:07;;;;;;;3.87;1.90;;;17.90;41.40;;;;;;5050238;28;20412;-77
2022/01/13 02:19:34;;;;;;;3.67;2.27;;;17.90;41.30;;;;;;5050403;28;20478;-76
2022/01/13 02:22:00;;;;;;;2.93;1.90;;;17.90;41.60;;;;;;5050163;28;20392;-76
2022/01/13 02:24:26;;;;;;;2.47;1.60;;;18.00;41.30;;;;;;5050504;28;20464;-76
2022/01/13 02:26:52;;;;;;;2.67;1.90;;;17.90;41.20;;;;;;5050431;28;20176;-76
2022/01/13 02:29:17;;;;;;;3.60;1.50;;;17.90;42.20;;;;;;5065562;28;20440;-76
2022/01/13 02:31:43;;;;;;;3.40;1.90;;;17.90;41.50;;;;;;5050126;28;20636;-77
2022/01/13 02:34:09;;;;;;;2.60;1.77;;;17.90;41.80;;;;;;5050365;28;20169;-76
2022/01/13 02:36:36;;;;;;;3.63;1.80;;;17.90;41.90;;;;;;5050354;28;20165;-76
2022/01/13 02:39:04;;;;;;;2.43;1.50;;;17.90;41.20;;;;;;5050246;28;20189;-76
2022/01/13 02:41:30;;;;;;;2.53;1.50;;;17.90;40.60;;;;;;5050132;28;20903;-76
2022/01/13 02:43:58;;;;;;;2.80;1.90;;;17.90;41.40;;;;;;5050250;28;20411;-76
2022/01/13 02:49:04;;;;;;;4.90;1.60;;;17.90;41.20;;;;;;5050272;28;20526;-76
2022/01/13 02:51:30;;;;;;;3.00;1.63;;;17.90;41.10;;;;;;5049855;28;21040;-77
2022/01/13 02:53:55;;;;;;;3.10;1.90;;;17.90;42.00;;;;;;5050215;28;20443;-77
2022/01/13 02:56:21;;;;;;;2.60;1.50;;;17.90;43.00;;;;;;5054039;28;20256;-77
2022/01/13 02:58:47;;;;;;;2.77;1.70;;;17.90;41.60;;;;;;5053987;28;20161;-77
2022/01/13 03:01:14;;;;;;;2.87;1.70;;;17.90;42.40;;;;;;5053406;28;20472;-76
2022/01/13 03:03:40;;;;;;;3.17;2.00;;;17.90;41.90;;;;;;5053941;28;20232;-76
2022/01/13 03:06:14;;;;;;;3.70;1.83;;;17.90;41.20;;;;;;5053771;28;20399;-78
2022/01/13 03:08:46;;;;;;;2.63;1.90;;;17.90;41.30;;;;;;5053850;28;20783;-76
2022/01/13 03:11:13;;;;;;;8.57;1.87;;;17.90;41.50;;;;;;5053332;28;20881;-76
2022/01/13 03:13:39;;;;;;;3.43;1.80;;;17.90;42.40;;;;;;5053732;28;20404;-76
2022/01/13 03:16:08;;;;;;;3.27;1.90;;;17.90;41.30;;;;;;5053565;28;20887;-77
2022/01/13 03:18:34;;;;;;;2.67;1.83;;;17.90;41.70;;;;;;5053672;28;20415;-76
2022/01/13 03:21:00;;;;;;;3.40;1.87;;;17.90;41.80;;;;;;5052901;28;20486;-76
2022/01/13 03:23:25;;;;;;;4.30;2.37;;;17.90;41.50;;;;;;5053529;28;20439;-76
2022/01/13 03:25:51;;;;;;;5.13;1.63;;;17.90;41.90;;;;;;5053477;28;20185;-76
2022/01/13 03:28:28;;;;;;;2.37;1.63;;;17.90;43.80;;;;;;5053479;28;20161;-77
2022/01/13 03:30:54;;;;;;;2.90;1.70;;;18.00;44.80;;;;;;5052780;28;20291;-76
2022/01/13 03:33:20;;;;;;;2.90;1.80;;;18.00;42.50;;;;;;5053334;28;20407;-77
2022/01/13 03:35:46;;;;;;;4.90;1.90;;;18.00;43.10;;;;;;5068781;28;20416;-76
2022/01/13 03:38:11;;;;;;;7.37;2.10;;;18.00;41.80;;;;;;5053199;28;20188;-76
2022/01/13 03:40:37;;;;;;;3.50;2.13;;;18.00;42.90;;;;;;5071415;22;20220;-64
2022/01/13 03:43:04;;;;;;;2.97;1.60;;;17.90;41.60;;;;;;5053861;28;20174;-62
2022/01/13 03:45:32;;;;;;;3.40;2.00;;;17.90;42.10;;;;;;5054229;28;20191;-60
2022/01/13 03:47:58;;;;;;;4.17;1.90;;;17.90;42.30;;;;;;5054004;28;20458;-63
2022/01/13 03:50:24;;;;;;;2.93;1.90;;;17.90;42.10;;;;;;5053827;28;20459;-63
2022/01/13 03:53:01;;;;;;;4.80;2.13;;;17.90;41.20;;;;;;5053499;28;20729;-63
2022/01/13 03:55:36;;;;;;;3.97;1.90;;;17.90;42.50;;;;;;5054050;28;20169;-65
2022/01/13 03:58:26;;;;;;;3.37;1.80;;;17.90;41.30;;;;;;5054064;28;20498;-62
2022/01/13 04:01:29;;;;;;;3.43;1.90;;;17.90;41.80;;;;;;5054698;28;20463;-64
2022/01/13 04:03:55;;;;;;;3.90;1.97;;;17.90;41.20;;;;;;5054975;28;20418;-63
2022/01/13 04:06:21;;;;;;;2.80;1.67;;;17.90;41.20;;;;;;5053482;28;20499;-60
2022/01/13 04:08:48;;;;;;;3.90;1.60;;;17.90;40.90;;;;;;5053499;28;20177;-65
2022/01/13 04:11:28;;;;;;;3.17;1.70;;;17.90;41.60;;;;;;5054388;28;20231;-62
2022/01/13 04:13:57;;;;;;;3.50;1.40;;;17.90;41.20;;;;;;5053412;28;20420;-61
2022/01/13 04:16:27;;;;;;;2.57;1.80;;;17.90;41.40;;;;;;5053725;28;20416;-62
2022/01/13 04:18:58;;;;;;;3.00;2.20;;;17.90;40.40;;;;;;5053663;28;20416;-63
2022/01/13 04:21:23;;;;;;;2.50;1.90;;;17.90;40.40;;;;;;5053119;28;20439;-62
2022/01/13 04:23:49;;;;;;;3.10;1.70;;;17.90;41.40;;;;;;5054669;28;20408;-62
2022/01/13 04:26:19;;;;;;;2.90;1.97;;;17.90;42.50;;;;;;5053398;28;20629;-60
2022/01/13 04:28:46;;;;;;;3.77;2.30;;;17.90;42.20;;;;;;5053317;28;20510;-64
2022/01/13 04:31:12;;;;;;;2.77;2.10;;;17.90;41.00;;;;;;5052756;28;21026;-63
2022/01/13 04:33:38;;;;;;;3.00;1.87;;;17.90;41.50;;;;;;5053157;28;20418;-60
2022/01/13 04:36:06;;;;;;;3.67;2.23;;;17.90;40.70;;;;;;5053221;28;20169;-62
2022/01/13 04:38:32;;;;;;;3.53;2.40;;;17.90;42.10;;;;;;5053020;28;20411;-62
2022/01/13 04:41:00;;;;;;;5.63;2.10;;;17.90;41.60;;;;;;5052479;28;20455;-65
2022/01/13 04:43:30;;;;;;;2.17;1.60;;;17.90;41.70;;;;;;5053014;28;20502;-63
2022/01/13 04:45:56;;;;;;;2.60;1.80;;;17.90;41.10;;;;;;5053022;28;20911;-65
2022/01/13 04:48:21;;;;;;;2.73;1.63;;;17.90;41.50;;;;;;5054303;28;20423;-61
2022/01/13 04:50:47;;;;;;;2.40;1.93;;;17.90;40.50;;;;;;5052752;28;20471;-64
2022/01/13 04:53:14;;;;;;;3.67;2.00;;;17.90;41.00;;;;;;5052743;28;20165;-65
2022/01/13 04:55:49;;;;;;;2.60;1.83;;;17.90;40.30;;;;;;5052823;28;20173;-62
2022/01/13 04:58:14;;;;;;;2.50;1.80;;;17.90;41.20;;;;;;5052824;28;20403;-62
2022/01/13 05:00:40;;;;;;;2.67;1.57;;;17.80;40.50;;;;;;5052554;28;20446;-65
2022/01/13 05:03:06;;;;;;;3.90;1.87;;;17.80;41.00;;;;;;5052388;28;20173;-63
2022/01/13 05:05:31;;;;;;;2.63;2.00;;;17.80;41.20;;;;;;5052663;28;20177;-62
2022/01/13 05:07:57;;;;;;;2.40;1.70;;;17.90;40.50;;;;;;5052608;28;20187;-62
2022/01/13 05:10:23;;;;;;;2.97;1.90;;;17.80;40.70;;;;;;5052217;28;20557;-62
2022/01/13 05:12:54;;;;;;;3.37;2.00;;;17.90;41.80;;;;;;5052238;28;20242;-62
2022/01/13 05:15:26;;;;;;;3.87;2.40;;;17.80;42.80;;;;;;5052389;28;20173;-64
2022/01/13 05:20:29;;;;;;;2.43;1.80;;;17.90;42.70;;;;;;5053444;28;20433;-64
2022/01/13 05:22:55;;;;;;;8.63;1.70;;;17.80;41.70;;;;;;5051880;28;20422;-61
2022/01/13 05:25:21;;;;;;;3.20;2.07;;;17.90;41.90;;;;;;5052252;28;20412;-62
2022/01/13 05:27:48;;;;;;;4.13;2.40;;;17.90;41.90;;;;;;5052391;28;20223;-64
2022/01/13 05:30:15;;;;;;;2.83;1.77;;;17.90;41.90;;;;;;5051864;28;21314;-62
2022/01/13 05:32:42;;;;;;;2.70;2.03;;;17.90;41.90;;;;;;5051863;28;20410;-63
2022/01/13 05:35:08;;;;;;;3.00;1.90;;;17.90;42.60;;;;;;5052027;28;20507;-63
2022/01/13 05:37:34;;;;;;;3.13;1.80;;;17.90;42.80;;;;;;5052149;28;20743;-62
2022/01/13 05:39:59;;;;;;;3.80;2.27;;;17.90;41.50;;;;;;5051609;28;20970;-61
2022/01/13 05:42:25;;;;;;;2.60;1.90;;;17.90;41.80;;;;;;5051687;28;20204;-63
2022/01/13 05:44:51;;;;;;;4.70;2.03;;;17.90;41.40;;;;;;5051953;28;20181;-60
2022/01/13 05:47:17;;;;;;;2.70;1.80;;;17.90;41.40;;;;;;5051969;28;20200;-63
2022/01/13 05:49:43;;;;;;;2.70;2.00;;;17.90;41.20;;;;;;5051650;28;20235;-62
2022/01/13 05:52:13;;;;;;;9.97;2.13;;;17.90;41.70;;;;;;5051550;28;20436;-60
2022/01/13 05:54:39;;;;;;;3.10;2.03;;;17.90;40.70;;;;;;5051891;28;20162;-64
2022/01/13 05:57:05;;;;;;;3.70;2.10;;;17.90;41.90;;;;;;5052024;28;20408;-62
2022/01/13 05:59:32;;;;;;;3.43;1.83;;;17.90;41.40;;;;;;5052651;28;20435;-61
2022/01/13 06:01:59;;;;;;;7.73;2.00;;;17.90;42.00;;;;;;5051071;28;20439;-60
2022/01/13 06:04:24;;;;;;;5.57;2.37;;;17.90;42.10;;;;;;5050969;28;20426;-63
2022/01/13 06:06:50;;;;;;;3.40;2.33;;;17.90;41.40;;;;;;5051594;28;20423;-63
2022/01/13 06:09:16;;;;;;;7.90;2.33;;;17.90;41.60;;;;;;5051665;28;20242;-63
2022/01/13 06:11:52;;;;;;;4.10;2.37;;;17.90;42.00;;;;;;5050630;28;21001;-64
2022/01/13 06:14:17;;;;;;;3.47;1.90;;;17.90;42.10;;;;;;5051439;28;20218;-63
2022/01/13 06:16:43;;;;;;;3.60;2.07;;;17.90;41.80;;;;;;5051424;28;20808;-61
2022/01/13 06:19:09;;;;;;;4.47;2.57;;;17.90;41.60;;;;;;5051497;28;20264;-61
2022/01/13 06:21:37;;;;;;;5.23;2.40;;;17.90;41.10;;;;;;5051178;28;20223;-62
2022/01/13 06:24:03;;;;;;;5.67;2.40;;;17.90;40.90;;;;;;5049525;28;20177;-64
2022/01/13 06:26:29;;;;;;;8.37;2.60;;;17.90;41.20;;;;;;5041414;28;20470;-61
2022/01/13 06:28:54;;;;;;;2.50;1.73;;;17.90;41.60;;;;;;5032150;28;20231;-63
2022/01/13 06:31:20;;;;;;;3.70;2.17;;;17.90;41.80;;;;;;5047136;28;20201;-64
2022/01/13 06:33:46;;;;;;;3.40;2.07;;;17.90;43.20;;;;;;5056881;28;20223;-61
2022/01/13 06:36:11;;;;;;;4.53;2.57;;;17.90;42.40;;;;;;5055463;28;20692;-63
2022/01/13 06:38:37;;;;;;;3.67;2.23;;;17.90;41.60;;;;;;5055307;28;20169;-61
2022/01/13 06:41:03;;;;;;;5.17;2.40;;;17.90;41.50;;;;;;5054753;28;20675;-63
2022/01/13 06:43:29;;;;;;;3.70;2.03;;;17.90;42.50;;;;;;5055305;28;20173;-62
2022/01/13 06:45:55;;;;;;;4.60;2.17;;;17.90;43.80;;;;;;5055257;28;20184;-63
2022/01/13 06:48:21;;;;;;;4.37;2.37;;;17.90;44.80;;;;;;5055175;28;20848;-64
2022/01/13 06:50:46;;;;;;;7.67;2.73;;;17.90;44.30;;;;;;5054936;28;20455;-63
2022/01/13 06:53:12;;;;;;;9.50;4.20;;;17.90;43.00;;;;;;5054812;28;20181;-64
2022/01/13 06:55:38;;;;;;;4.57;2.67;;;17.90;43.20;;;;;;5054958;28;20166;-60
2022/01/13 06:58:03;;;;;;;4.90;2.30;;;17.90;43.80;;;;;;5055193;28;20181;-60
2022/01/13 07:00:29;;;;;;;4.00;2.90;;;17.90;43.30;;;;;;5054773;28;20197;-61
2022/01/13 07:02:58;;;;;;;4.30;3.20;;;17.90;42.70;;;;;;5054620;28;20236;-59
2022/01/13 07:05:24;;;;;;;5.17;3.27;;;17.90;43.00;;;;;;5054759;28;20222;-64
2022/01/13 07:07:50;;;;;;;6.97;3.70;;;17.90;42.30;;;;;;5054848;28;20494;-61
2022/01/13 07:10:15;;;;;;;5.53;3.13;;;17.90;42.50;;;;;;5054424;28;20735;-61
2022/01/13 07:12:42;;;;;;;8.00;3.13;;;17.90;42.00;;;;;;5054432;28;20411;-63
2022/01/13 07:15:10;;;;;;;11.43;3.20;;;17.90;42.50;;;;;;5054577;28;20192;-64
2022/01/13 07:17:36;;;;;;;14.13;3.63;;;17.90;42.30;;;;;;5054653;28;20412;-64
2022/01/13 07:20:03;;;;;;;11.73;3.00;;;17.90;44.30;;;;;;5054507;28;20749;-61
2022/01/13 07:22:29;;;;;;;8.07;3.37;;;17.90;44.50;;;;;;5055542;28;20891;-63
2022/01/13 07:24:54;;;;;;;4.00;2.10;;;18.00;45.80;;;;;;5054629;28;20422;-63
2022/01/13 07:27:20;;;;;;;10.60;2.70;;;17.90;44.20;;;;;;5054476;28;20173;-63
2022/01/13 07:29:48;;;;;;;8.43;3.23;;;17.90;41.70;;;;;;5054325;28;20278;-62
2022/01/13 07:32:15;;;;;;;4.90;2.80;;;17.90;43.20;;;;;;5054126;28;20169;-60
2022/01/13 07:34:41;;;;;;;6.57;3.33;;;17.90;41.40;;;;;;5054408;28;20404;-60
2022/01/13 07:37:08;;;;;;;11.13;3.53;;;17.90;40.80;;;;;;5054318;28;20411;-62
2022/01/13 07:39:35;;;;;;;6.30;3.10;;;17.90;40.90;;;;;;5053821;28;20452;-63
2022/01/13 07:42:02;;;;;;;12.53;2.90;;;17.90;40.70;;;;;;5053246;28;20490;-63
2022/01/13 07:44:28;;;;;;;8.10;2.40;;;17.90;41.30;;;;;;5054022;28;20468;-61
2022/01/13 07:46:56;;;;;;;4.77;2.97;;;17.80;40.80;;;;;;5053909;28;20411;-62
2022/01/13 07:49:22;;;;;;;5.13;2.70;;;17.90;40.90;;;;;;5053764;28;20708;-62
2022/01/13 07:51:47;;;;;;;5.40;3.30;;;17.80;40.70;;;;;;5053373;28;20597;-62
2022/01/13 07:54:13;;;;;;;4.93;2.30;;;17.80;39.90;;;;;;5053859;28;20264;-62
2022/01/13 07:56:38;;;;;;;4.90;2.70;;;17.90;41.30;;;;;;5053767;28;20169;-61
2022/01/13 07:59:04;;;;;;;5.20;2.67;;;17.90;40.30;;;;;;5053687;28;20165;-63
2022/01/13 08:01:30;;;;;;;3.60;2.27;;;17.90;40.50;;;;;;5053322;28;20193;-62
2022/01/13 08:03:55;;;;;;;4.20;2.83;;;17.90;40.70;;;;;;5053605;28;20212;-63
2022/01/13 08:06:21;;;;;;;4.73;2.47;;;17.90;40.70;;;;;;5053506;28;20181;-61
2022/01/13 08:08:46;;;;;;;5.40;2.57;;;17.90;40.70;;;;;;5053640;28;20216;-64
2022/01/13 08:11:12;;;;;;;4.70;2.80;;;17.90;39.90;;;;;;5053032;28;20215;-60
2022/01/13 08:13:38;;;;;;;3.50;2.00;;;17.90;40.60;;;;;;5053469;28;20173;-60
2022/01/13 08:16:08;;;;;;;3.50;2.10;;;17.90;40.80;;;;;;5054572;28;20169;-62
2022/01/13 08:21:19;;;;;;;4.97;2.47;;;17.90;40.10;;;;;;5054370;28;20945;-64
2022/01/13 08:23:44;;;;;;;5.33;3.00;;;17.90;40.60;;;;;;5053381;28;20408;-60
2022/01/13 08:26:10;;;;;;;3.53;2.30;;;17.90;39.80;;;;;;5053124;28;20196;-61
2022/01/13 08:28:36;;;;;;;5.27;3.27;;;17.90;41.10;;;;;;5053177;28;20264;-63
2022/01/13 08:31:03;;;;;;;4.33;2.40;;;17.90;40.80;;;;;;5052457;28;20550;-60
2022/01/13 08:33:30;;;;;;;6.90;2.03;;;17.90;41.10;;;;;;5053192;28;20416;-63
2022/01/13 08:35:56;;;;;;;3.37;2.20;;;17.90;40.80;;;;;;5052915;28;20930;-64
2022/01/13 08:38:24;;;;;;;3.63;2.50;;;17.90;40.60;;;;;;5052951;28;20408;-61
2022/01/13 08:40:57;;;;;;;3.20;2.43;;;17.90;41.10;;;;;;5052379;28;20447;-62
2022/01/13 08:43:24;;;;;;;4.07;2.40;;;17.90;40.90;;;;;;5052895;28;20415;-62
2022/01/13 08:45:50;;;;;;;3.77;2.23;;;17.90;41.40;;;;;;5052832;28;20753;-62
2022/01/13 08:48:17;;;;;;;4.07;2.53;;;17.90;40.30;;;;;;5052647;28;20986;-64
2022/01/13 08:50:43;;;;;;;6.70;2.87;;;18.00;41.60;;;;;;5052450;28;20473;-59
2022/01/13 08:53:09;;;;;;;4.50;2.67;;;18.00;41.30;;;;;;5051438;28;20486;-60
2022/01/13 08:55:35;;;;;;;4.70;3.03;;;18.00;42.50;;;;;;5052608;28;20411;-61
2022/01/13 08:58:01;;;;;;;3.83;2.57;;;18.00;41.30;;;;;;5052550;28;20977;-63
2022/01/13 09:00:27;;;;;;;4.10;2.57;;;18.10;41.00;;;;;;5052401;28;20469;-62
2022/01/13 09:02:53;;;;;;;4.40;2.57;;;18.10;41.20;;;;;;5052109;28;20404;-61
2022/01/13 09:05:20;;;;;;;4.10;2.73;;;18.10;41.40;;;;;;5052466;28;20533;-63
2022/01/13 09:07:45;;;;;;;3.77;2.20;;;18.10;41.50;;;;;;5052394;28;20177;-63
2022/01/13 09:10:13;;;;;;;7.27;2.77;;;18.20;42.00;;;;;;5052183;28;20813;-61
2022/01/13 09:12:39;;;;;;;3.43;2.03;;;18.20;41.80;;;;;;5053330;28;20633;-60
2022/01/13 09:15:57;;;;;;;5.63;2.27;;;18.30;41.90;;;;;;5052307;28;20404;-61
2022/01/13 09:17:53;;;;;;;4.93;2.40;;;18.30;41.00;;;;;;5046060;28;20431;-63
2022/01/13 09:20:19;;;;;;;5.87;3.10;;;18.30;40.40;;;;;;5052134;28;20471;-63
2022/01/13 09:22:45;;;;;;;5.47;3.20;;;18.40;39.80;;;;;;5051833;28;20473;-61
2022/01/13 09:25:11;;;;;;;6.53;2.87;;;18.40;39.00;;;;;;5052104;28;20420;-64
2022/01/13 09:27:41;;;;;;;5.43;3.37;;;18.40;39.20;;;;;;5052011;28;20165;-61
2022/01/13 09:30:13;;;;;;;6.23;2.87;;;18.40;38.90;;;;;;5051837;28;20220;-61
2022/01/13 09:32:39;;;;;;;7.23;2.67;;;18.40;38.80;;;;;;5051961;28;20422;-63
2022/01/13 09:35:07;;;;;;;4.47;2.80;;;18.40;38.60;;;;;;5051934;28;20490;-62
2022/01/13 09:37:33;;;;;;;4.60;3.20;;;18.40;38.40;;;;;;5051896;28;20400;-61
2022/01/13 09:39:59;;;;;;;5.17;3.00;;;18.40;38.70;;;;;;5051496;28;20453;-62
2022/01/13 09:42:32;;;;;;;4.57;2.80;;;18.40;38.40;;;;;;5051419;28;20440;-60
2022/01/13 09:45:00;;;;;;;4.37;2.77;;;18.40;38.50;;;;;;5051616;28;20510;-60
2022/01/13 09:47:26;;;;;;;6.60;3.00;;;18.40;38.60;;;;;;5051701;28;20489;-63
2022/01/13 09:49:51;;;;;;;3.43;2.20;;;18.40;38.40;;;;;;5051533;28;22735;-62
2022/01/13 09:52:20;;;;;;;3.63;2.30;;;18.40;38.80;;;;;;5051326;28;20173;-64
2022/01/13 09:54:47;;;;;;;4.13;2.77;;;18.40;38.80;;;;;;5051689;28;20169;-63
2022/01/13 09:57:12;;;;;;;5.20;2.80;;;18.40;38.50;;;;;;5051481;28;20761;-62
2022/01/13 09:59:38;;;;;;;4.00;2.40;;;18.40;38.20;;;;;;5051450;28;20973;-63
2022/01/13 10:02:03;;;;;;;3.70;2.43;;;18.40;38.20;;;;;;5051246;28;20307;-63
2022/01/13 10:04:47;;;;;;;3.10;2.50;;;18.40;38.00;;;;;;5051359;28;20655;-62
2022/01/13 10:07:17;;;;;;;3.50;2.27;;;18.50;38.40;;;;;;5051459;28;20173;-63
2022/01/13 10:09:54;;;;;;;5.90;2.97;;;18.50;38.60;;;;;;5051256;28;20434;-64
2022/01/13 10:12:29;;;;;;;3.83;2.53;;;18.50;38.60;;;;;;5051022;28;20994;-62
2022/01/13 10:17:26;;;;;;;3.80;2.60;;;18.60;38.50;;;;;;5052557;28;20411;-61
2022/01/13 10:19:55;;;;;;;4.27;2.80;;;18.60;38.60;;;;;;5052470;28;20481;-60
2022/01/13 10:22:25;;;;;;;4.87;2.30;;;18.60;38.10;;;;;;5050975;28;20612;-63
2022/01/13 10:24:54;;;;;;;4.10;2.80;;;18.60;38.40;;;;;;5051395;28;20462;-63
2022/01/13 10:27:22;;;;;;;4.07;2.27;;;18.70;38.20;;;;;;5051240;28;20412;-64
2022/01/13 10:29:53;;;;;;;4.13;2.10;;;18.70;38.40;;;;;;5051080;28;20424;-62
2022/01/13 10:32:21;;;;;;;3.07;2.27;;;18.70;38.60;;;;;;5050977;28;20462;-64
2022/01/13 10:34:49;;;;;;;4.10;2.60;;;18.80;39.00;;;;;;5051172;28;20515;-62
2022/01/13 10:37:18;;;;;;;5.00;2.17;;;18.80;39.00;;;;;;5051214;28;20939;-62
2022/01/13 10:39:53;;;;;;;3.40;2.03;;;18.80;39.00;;;;;;5050857;28;20456;-62
2022/01/13 10:45:08;;;;;;;3.87;2.73;;;18.90;39.00;;;;;;5048591;28;20415;-63
2022/01/13 10:47:35;;;;;;;3.70;2.30;;;18.90;39.40;;;;;;5051110;28;20415;-61
2022/01/13 10:50:04;;;;;;;6.00;2.50;;;18.90;39.20;;;;;;5050837;28;20473;-61
2022/01/13 10:52:30;;;;;;;4.47;2.13;;;19.00;39.50;;;;;;5050844;28;20903;-62
2022/01/13 10:55:14;;;;;;;3.70;2.00;;;18.90;39.70;;;;;;5050960;28;20423;-62
2022/01/13 10:57:42;;;;;;;3.43;2.20;;;19.00;39.60;;;;;;5051081;28;20181;-62
2022/01/13 11:00:32;;;;;;;4.67;2.37;;;19.00;40.10;;;;;;5050746;28;20533;-61
2022/01/13 11:03:05;;;;;;;2.60;1.90;;;19.10;39.70;;;;;;5050706;28;20940;-61
2022/01/13 11:05:34;;;;;;;4.13;2.17;;;19.10;39.90;;;;;;5051085;28;20459;-62
2022/01/13 11:08:05;;;;;;;3.93;2.27;;;19.10;39.90;;;;;;5050897;28;20412;-64
2022/01/13 11:10:31;;;;;;;4.33;2.17;;;19.10;39.80;;;;;;5050770;28;20467;-64
2022/01/13 11:12:58;;;;;;;3.40;1.90;;;19.10;39.80;;;;;;5050537;28;20399;-63
2022/01/13 11:15:25;;;;;;;4.47;2.10;;;19.10;39.90;;;;;;5051670;28;20503;-61
2022/01/13 11:17:56;;;;;;;3.83;2.27;;;19.20;40.00;;;;;;5054595;28;20907;-62
2022/01/13 11:20:23;;;;;;;3.70;2.60;;;19.20;40.30;;;;;;5054366;28;20446;-64
2022/01/13 11:22:54;;;;;;;3.87;2.37;;;19.20;40.30;;;;;;5054158;28;20903;-63
2022/01/13 11:25:23;;;;;;;3.20;2.10;;;19.30;40.50;;;;;;5054242;28;20832;-62
2022/01/13 11:27:50;;;;;;;4.20;2.57;;;19.30;40.80;;;;;;5054431;28;20576;-63
2022/01/13 11:30:19;;;;;;;2.07;1.60;;;19.30;40.60;;;;;;5054023;28;20478;-63
2022/01/13 11:32:46;;;;;;;3.07;1.90;;;19.40;40.90;;;;;;5054054;28;20490;-63
2022/01/13 11:35:29;;;;;;;4.20;2.13;;;19.40;40.60;;;;;;5054095;28;20424;-60
2022/01/13 11:37:56;;;;;;;2.97;1.80;;;19.40;40.50;;;;;;5054223;28;20411;-62
2022/01/13 11:40:28;;;;;;;3.60;2.30;;;19.50;40.50;;;;;;5053740;28;20486;-63
2022/01/13 11:42:59;;;;;;;3.00;2.00;;;19.50;40.80;;;;;;5053818;28;20431;-59
2022/01/13 11:45:26;;;;;;;3.50;1.87;;;19.50;40.20;;;;;;5054052;28;20924;-62
2022/01/13 11:48:12;;;;;;;2.87;1.70;;;19.50;40.50;;;;;;5054023;28;20420;-61
2022/01/13 11:50:52;;;;;;;3.00;2.00;;;19.50;40.00;;;;;;5053533;28;20477;-61
2022/01/13 11:53:29;;;;;;;2.30;1.60;;;19.50;40.00;;;;;;5053935;28;20495;-62
2022/01/13 11:55:59;;;;;;;3.73;2.27;;;19.50;39.70;;;;;;5053831;28;20415;-64
2022/01/13 11:58:38;;;;;;;2.57;1.70;;;19.50;39.70;;;;;;5053812;28;20474;-63
2022/01/13 12:01:24;;;;;;;3.63;2.20;;;19.50;39.80;;;;;;5053371;28;20466;-64
2022/01/13 12:03:56;;;;;;;3.53;2.40;;;19.50;40.00;;;;;;5053802;28;20885;-61
2022/01/13 12:06:39;;;;;;;2.30;1.80;;;19.50;40.40;;;;;;5053653;28;20411;-61
2022/01/13 12:09:07;;;;;;;2.70;1.80;;;19.60;40.30;;;;;;5053624;28;20418;-63
2022/01/13 12:11:42;;;;;;;3.30;2.40;;;19.60;40.10;;;;;;5053274;28;20460;-60
2022/01/13 12:14:27;;;;;;;3.77;1.70;;;19.60;39.80;;;;;;5053591;28;20501;-63
2022/01/13 12:16:56;;;;;;;3.57;2.23;;;19.60;40.00;;;;;;5053640;28;20420;-65
2022/01/13 12:19:40;;;;;;;3.93;2.23;;;19.60;39.70;;;;;;5053382;28;20416;-61
2022/01/13 12:22:12;;;;;;;8.03;2.87;;;19.60;39.90;;;;;;5053236;28;20929;-61
2022/01/13 12:25:08;;;;;;;7.30;3.60;;;19.60;39.80;;;;;;5053492;28;20433;-64
2022/01/13 12:27:40;;;;;;;7.57;4.10;;;19.60;40.00;;;;;;5044000;28;20412;-62
2022/01/13 12:30:25;;;;;;;11.33;4.30;;;19.60;39.50;;;;;;5052978;28;20459;-63
2022/01/13 12:33:03;;;;;;;16.80;4.47;;;19.60;39.60;;;;;;5053058;28;20514;-63
2022/01/13 12:35:38;;;;;;;14.47;4.80;;;19.60;39.50;;;;;;5053222;28;20395;-62
2022/01/13 12:38:13;;;;;;;10.63;5.27;;;19.60;39.20;;;;;;5053092;28;20418;-60
2022/01/13 12:40:54;;;;;;;15.80;5.97;;;19.60;39.30;;;;;;5052853;28;20451;-64
2022/01/13 12:46:07;;;;;;;20.10;6.03;;;19.50;39.40;;;;;;5054362;28;20400;-63
2022/01/13 12:48:33;;;;;;;17.17;5.87;;;19.50;39.30;;;;;;5052931;28;20434;-60
2022/01/13 12:50:59;;;;;;;19.80;7.77;;;19.60;39.30;;;;;;5052265;28;20514;-61
2022/01/13 12:53:28;;;;;;;16.27;5.37;;;19.50;39.30;;;;;;5052877;28;20436;-63
2022/01/13 12:56:12;;;;;;;22.10;6.93;;;19.50;39.00;;;;;;5052832;28;20906;-61
2022/01/13 12:58:47;;;;;;;27.37;7.27;;;19.50;38.90;;;;;;5052903;28;20525;-61
2022/01/13 13:01:15;;;;;;;23.20;6.57;;;19.50;39.20;;;;;;5052226;28;20451;-60
2022/01/13 13:03:42;;;;;;;14.97;6.67;;;19.50;39.10;;;;;;5052661;28;20460;-63
2022/01/13 13:06:13;;;;;;;19.47;6.50;;;19.50;38.90;;;;;;5053865;28;20404;-62
2022/01/13 13:08:44;;;;;;;13.93;6.27;;;19.50;38.90;;;;;;5052713;28;20455;-63
2022/01/13 13:11:09;;;;;;;20.30;6.03;;;19.50;38.60;;;;;;5052048;28;20831;-63
2022/01/13 13:13:46;;;;;;;16.13;6.40;;;19.50;38.90;;;;;;5052607;28;20412;-59
2022/01/13 13:16:13;;;;;;;24.70;6.87;;;19.40;39.00;;;;;;5052479;28;20629;-62
2022/01/13 13:18:39;;;;;;;14.90;7.03;;;19.50;38.90;;;;;;5051941;28;20927;-64
2022/01/13 13:21:08;;;;;;;15.27;5.97;;;19.40;39.00;;;;;;5049775;28;20440;-63